Current Weather

Aurora Municipal Airport

Aurora Municipal Airport, Illinois (KARR)

Report from: Monday, May 23, 2022 1:52 AM CDT
Current time: Monday, May 23, 2022 2:44 AM CDT

Nearby weather
Weather history
Weather forecast

Temperature6.7°C (44.1°F)
Wind chill5.8°C (42.5°F)
Dew point3.9°C (39.0°F)
Winds 3 kts (1.5 m/s, 3.5 mph) Northeast (50°)
Visibility10 mi. (16.1 km)
Clouds Sky clear
Altimeter30.35 in.Hg (1028 mB)
Relative humidity82 %
Density altitude-1,372 ft. (-418 m)
Sea-level pressure102.8 kPa (1028 mB, 30.36 in.Hg)
Remarks Fully automated report
Automated weather observing station with precipitation discriminator
Flight conditions Visual Meteorological Conditions
Raw dataKARR 230652Z AUTO 05003KT 10SM CLR 07/04 A3035 RMK AO2 SLP280 T00670039
An error has occurred. This application may no longer respond until reloaded. Reload 🗙